createdAt,value
2019-01-08T00:02:04.807Z,7.14
2019-01-08T00:04:33.966Z,7.12
2019-01-08T00:07:03.094Z,7.04
2019-01-08T00:09:32.250Z,6.94
2019-01-08T00:12:02.156Z,6.96
2019-01-08T00:14:31.276Z,7.08
2019-01-08T00:17:00.445Z,7.02
2019-01-08T00:19:29.972Z,7.00
2019-01-08T00:21:59.100Z,7.13
2019-01-08T00:24:28.233Z,7.07
2019-01-08T00:26:58.775Z,7.12
2019-01-08T00:29:27.909Z,7.12
2019-01-08T00:31:57.059Z,7.11
2019-01-08T00:34:26.227Z,7.16
2019-01-08T00:36:55.356Z,7.12
2019-01-08T00:39:24.485Z,7.13
2019-01-08T00:41:53.865Z,7.20
2019-01-08T00:44:23.216Z,7.17
2019-01-08T00:46:52.354Z,7.22
2019-01-08T00:49:21.557Z,7.24
2019-01-08T00:51:51.062Z,7.20
2019-01-08T00:54:20.193Z,7.21
2019-01-08T00:56:49.332Z,7.21
2019-01-08T00:59:18.864Z,7.17
2019-01-08T01:01:48.020Z,7.19
2019-01-08T01:04:17.228Z,7.09
2019-01-08T01:06:46.371Z,7.08
2019-01-08T01:09:15.550Z,7.08
2019-01-08T01:11:44.691Z,7.11
2019-01-08T01:14:13.883Z,7.06
2019-01-08T01:16:43.038Z,7.01
2019-01-08T01:19:12.283Z,6.96
2019-01-08T01:21:41.451Z,6.89
2019-01-08T01:24:10.638Z,6.85
2019-01-08T01:26:39.874Z,6.82
2019-01-08T01:29:09.534Z,6.78
2019-01-08T01:31:38.712Z,6.78
2019-01-08T01:34:07.858Z,6.72
2019-01-08T01:36:36.979Z,6.72
2019-01-08T01:39:07.224Z,6.67
2019-01-08T01:41:36.350Z,6.58
2019-01-08T01:44:05.482Z,6.57
2019-01-08T01:46:34.642Z,6.45
2019-01-08T01:49:03.792Z,6.45
2019-01-08T01:51:33.106Z,6.48
2019-01-08T01:54:02.227Z,6.41
2019-01-08T01:56:31.560Z,6.45
2019-01-08T01:59:08.138Z,6.39
2019-01-08T02:01:31.687Z,6.41
2019-01-08T02:04:00.924Z,6.57
2019-01-08T02:06:30.354Z,6.51
2019-01-08T02:08:59.482Z,6.46
2019-01-08T02:11:28.610Z,6.51
2019-01-08T02:13:57.979Z,6.56
2019-01-08T02:16:27.119Z,6.56
2019-01-08T02:18:56.241Z,6.65
2019-01-08T02:21:25.394Z,6.72
2019-01-08T02:23:54.552Z,6.73
2019-01-08T02:26:23.669Z,6.74
2019-01-08T02:28:52.795Z,6.84
2019-01-08T02:31:21.970Z,6.94
2019-01-08T02:33:51.087Z,6.96
2019-01-08T02:36:20.319Z,7.01
2019-01-08T02:38:49.896Z,6.99
2019-01-08T02:41:19.200Z,6.92
2019-01-08T02:43:48.494Z,7.00
2019-01-08T02:46:17.896Z,6.99
2019-01-08T02:48:47.203Z,6.99
2019-01-08T02:51:16.376Z,6.92
2019-01-08T02:53:45.520Z,6.92
2019-01-08T02:56:14.708Z,6.91
2019-01-08T02:58:43.914Z,6.79
2019-01-08T03:01:13.046Z,6.71
2019-01-08T03:03:42.316Z,6.61
2019-01-08T03:06:11.480Z,6.49
2019-01-08T03:08:40.644Z,6.47
2019-01-08T03:11:09.771Z,6.39
2019-01-08T03:13:39.000Z,6.39
2019-01-08T03:16:08.276Z,6.38
2019-01-08T03:18:37.432Z,6.39
2019-01-08T03:21:06.567Z,6.35
2019-01-08T03:23:35.723Z,6.35
2019-01-08T03:26:04.898Z,6.31
2019-01-08T03:28:34.270Z,6.26
2019-01-08T03:31:03.867Z,6.15
2019-01-08T03:33:33.026Z,5.37
2019-01-08T03:36:02.189Z,5.27
2019-01-08T03:38:31.573Z,5.66
2019-01-08T03:41:00.710Z,5.76
2019-01-08T03:43:29.830Z,5.81
2019-01-08T03:45:59.002Z,5.82
2019-01-08T03:48:28.139Z,5.76
2019-01-08T03:50:57.272Z,5.74
2019-01-08T03:53:26.535Z,5.72
2019-01-08T03:55:55.660Z,5.77
2019-01-08T03:58:24.797Z,5.78
2019-01-08T04:00:53.990Z,5.87
2019-01-08T04:03:23.124Z,5.88
2019-01-08T04:05:52.547Z,5.89
2019-01-08T04:08:21.681Z,5.92
2019-01-08T04:10:50.826Z,6.03
2019-01-08T04:13:19.990Z,6.07
2019-01-08T04:15:49.116Z,6.11
2019-01-08T04:18:18.289Z,6.24
2019-01-08T04:20:47.437Z,6.36
2019-01-08T04:23:16.622Z,6.34
2019-01-08T04:25:45.784Z,6.33
2019-01-08T04:28:15.039Z,6.35
2019-01-08T04:30:44.360Z,6.31
2019-01-08T04:33:13.496Z,6.29
2019-01-08T04:35:42.838Z,6.29
2019-01-08T04:38:12.014Z,6.24
2019-01-08T04:40:41.167Z,6.19
2019-01-08T04:43:10.305Z,6.19
2019-01-08T04:45:39.895Z,6.17
2019-01-08T04:48:09.040Z,6.08
2019-01-08T04:50:38.176Z,6.17
2019-01-08T04:53:07.573Z,6.08
2019-01-08T04:55:36.722Z,6.12
2019-01-08T04:58:05.890Z,6.10
2019-01-08T05:00:35.035Z,6.12
2019-01-08T05:03:04.172Z,6.26
2019-01-08T05:05:33.446Z,6.27
2019-01-08T05:08:02.606Z,6.27
2019-01-08T05:10:31.787Z,6.28
2019-01-08T05:13:00.940Z,6.39
2019-01-08T05:15:30.087Z,6.34
2019-01-08T05:17:59.288Z,6.42
2019-01-08T05:20:28.669Z,6.49
2019-01-08T05:22:58.160Z,6.50
2019-01-08T05:25:27.283Z,6.51
2019-01-08T05:27:56.422Z,6.53
2019-01-08T05:30:25.673Z,6.48
2019-01-08T05:32:54.924Z,6.54
2019-01-08T05:35:24.102Z,6.50
2019-01-08T05:37:53.237Z,6.43
2019-01-08T05:40:22.581Z,6.43
2019-01-08T05:42:51.801Z,6.41
2019-01-08T05:45:20.964Z,6.46
2019-01-08T05:47:50.094Z,6.46
2019-01-08T05:50:19.286Z,6.41
2019-01-08T05:52:48.728Z,6.40
2019-01-08T05:55:18.331Z,6.39
2019-01-08T05:57:47.532Z,6.38
2019-01-08T06:00:17.070Z,6.31
2019-01-08T06:02:46.197Z,6.17
2019-01-08T06:05:15.901Z,6.11
2019-01-08T06:07:45.083Z,6.00
2019-01-08T06:10:14.264Z,6.06
2019-01-08T06:12:43.552Z,6.13
2019-01-08T06:15:12.699Z,6.06
2019-01-08T06:17:42.254Z,6.22
2019-01-08T06:20:11.507Z,6.18
2019-01-08T06:22:40.627Z,6.18
2019-01-08T06:25:10.006Z,6.19
2019-01-08T06:27:39.093Z,6.26
2019-01-08T06:30:08.685Z,6.33
2019-01-08T06:32:37.833Z,6.29
2019-01-08T06:35:07.408Z,6.31
2019-01-08T06:37:36.583Z,6.38
2019-01-08T06:40:05.999Z,6.43
2019-01-08T06:42:35.174Z,6.39
2019-01-08T06:45:04.316Z,6.42
2019-01-08T06:47:33.511Z,6.39
2019-01-08T06:50:02.704Z,6.42
2019-01-08T06:52:33.832Z,6.41
2019-01-08T06:55:03.048Z,6.43
2019-01-08T06:57:32.324Z,6.43
2019-01-08T07:00:02.583Z,6.41
2019-01-08T07:02:31.909Z,6.39
2019-01-08T07:05:01.240Z,6.35
2019-01-08T07:07:30.410Z,6.38
2019-01-08T07:09:59.642Z,6.45
2019-01-08T07:12:28.787Z,6.44
2019-01-08T07:14:57.956Z,6.44
2019-01-08T07:17:27.093Z,6.46
2019-01-08T07:19:56.271Z,6.43
2019-01-08T07:22:25.440Z,6.38
2019-01-08T07:24:54.579Z,6.38
2019-01-08T07:27:23.794Z,6.36
2019-01-08T07:29:52.971Z,6.26
2019-01-08T07:32:22.148Z,6.24
2019-01-08T07:34:51.349Z,6.20
2019-01-08T07:37:20.587Z,6.16
2019-01-08T07:39:49.948Z,6.03
2019-01-08T07:42:19.186Z,5.98
2019-01-08T07:44:48.307Z,5.91
2019-01-08T07:47:17.487Z,5.87
2019-01-08T07:49:46.627Z,5.82
2019-01-08T07:52:15.788Z,5.83
2019-01-08T07:54:45.170Z,5.83
2019-01-08T07:57:14.345Z,5.79
2019-01-08T07:59:43.582Z,5.79
2019-01-08T08:02:12.934Z,5.75
2019-01-08T08:04:47.472Z,5.79
2019-01-08T08:07:13.010Z,5.84
2019-01-08T08:09:42.267Z,5.85
2019-01-08T08:12:11.510Z,5.84
2019-01-08T08:14:40.644Z,5.84
2019-01-08T08:17:09.918Z,5.85
2019-01-08T08:19:39.130Z,5.89
2019-01-08T08:22:08.352Z,5.87
2019-01-08T08:24:37.837Z,5.85
2019-01-08T08:27:07.020Z,5.88
2019-01-08T08:29:36.149Z,5.83
2019-01-08T08:32:05.260Z,5.84
2019-01-08T08:34:34.412Z,5.85
2019-01-08T08:37:03.556Z,5.85
2019-01-08T08:39:32.755Z,5.88
2019-01-08T08:42:01.887Z,5.95
2019-01-08T08:44:31.349Z,6.00
2019-01-08T08:47:00.472Z,6.04
2019-01-08T08:49:29.632Z,6.07
2019-01-08T08:51:58.805Z,6.18
2019-01-08T08:54:27.978Z,6.25
2019-01-08T08:56:57.184Z,6.29
2019-01-08T08:59:26.498Z,6.33
2019-01-08T09:01:55.659Z,6.46
2019-01-08T09:04:24.845Z,6.49
2019-01-08T09:06:54.060Z,6.53
2019-01-08T09:09:23.186Z,6.67
2019-01-08T09:11:52.360Z,6.72
2019-01-08T09:14:21.482Z,6.77
2019-01-08T09:16:50.669Z,6.70
2019-01-08T09:19:19.991Z,6.71
2019-01-08T09:21:49.151Z,6.71
2019-01-08T09:24:18.314Z,6.70
2019-01-08T09:26:47.475Z,6.76
2019-01-08T09:29:16.660Z,6.83
2019-01-08T09:31:45.837Z,6.85
2019-01-08T09:34:14.962Z,6.85
2019-01-08T09:36:45.431Z,6.81
2019-01-08T09:39:14.863Z,6.84
2019-01-08T09:41:43.998Z,6.82
2019-01-08T09:44:13.239Z,6.75
2019-01-08T09:46:42.413Z,6.75
2019-01-08T09:49:11.669Z,6.78
2019-01-08T09:51:40.826Z,6.79
2019-01-08T09:54:09.997Z,6.74
2019-01-08T09:56:39.229Z,6.76
2019-01-08T09:59:08.457Z,6.80
2019-01-08T10:01:37.710Z,6.82
2019-01-08T10:04:06.936Z,6.86
2019-01-08T10:06:36.132Z,6.98
2019-01-08T10:09:06.626Z,6.93
2019-01-08T10:11:35.789Z,6.93
2019-01-08T10:14:06.193Z,6.85
2019-01-08T10:16:35.297Z,6.81
2019-01-08T10:19:04.450Z,6.77
2019-01-08T10:21:33.661Z,6.81
2019-01-08T10:24:02.837Z,6.87
2019-01-08T10:26:31.960Z,6.87
2019-01-08T10:29:02.091Z,6.88
2019-01-08T10:31:32.619Z,6.91
2019-01-08T10:34:02.039Z,6.93
2019-01-08T10:36:31.235Z,6.91
2019-01-08T10:39:00.438Z,6.90
2019-01-08T10:41:29.599Z,6.86
2019-01-08T10:44:00.838Z,6.88
2019-01-08T10:46:37.223Z,6.91
2019-01-08T10:49:00.530Z,6.94
2019-01-08T10:51:29.672Z,6.99
2019-01-08T10:53:58.898Z,6.99
2019-01-08T10:56:28.066Z,6.99
2019-01-08T10:58:57.278Z,6.98
2019-01-08T11:01:26.505Z,7.00
2019-01-08T11:03:55.648Z,7.01
2019-01-08T11:06:24.809Z,7.06
2019-01-08T11:08:53.985Z,7.17
2019-01-08T11:11:23.527Z,7.23
2019-01-08T11:13:52.677Z,7.27
2019-01-08T11:16:21.852Z,7.34
2019-01-08T11:18:50.971Z,7.37
2019-01-08T11:21:20.161Z,7.51
2019-01-08T11:23:49.310Z,7.49
2019-01-08T11:26:18.469Z,7.19
2019-01-08T11:28:47.755Z,6.98
2019-01-08T11:31:16.920Z,6.90
2019-01-08T11:33:46.097Z,6.90
2019-01-08T11:36:15.226Z,6.89
2019-01-08T11:38:44.413Z,7.00
2019-01-08T11:41:13.554Z,6.98
2019-01-08T11:43:42.713Z,6.96
2019-01-08T11:46:11.887Z,6.80
2019-01-08T11:48:41.025Z,6.67
2019-01-08T11:51:10.259Z,6.59
2019-01-08T11:53:39.542Z,6.44
2019-01-08T11:56:08.705Z,6.10
2019-01-08T11:58:37.877Z,5.93
2019-01-08T12:01:07.050Z,5.80
2019-01-08T12:03:36.218Z,5.68
2019-01-08T12:06:05.399Z,5.74
2019-01-08T12:08:34.593Z,5.81
2019-01-08T12:11:03.730Z,5.94
2019-01-08T12:13:32.900Z,6.12
2019-01-08T12:16:02.580Z,6.30
2019-01-08T12:18:31.711Z,6.37
2019-01-08T12:21:02.175Z,6.45
2019-01-08T12:23:31.347Z,6.63
2019-01-08T12:26:00.510Z,6.68
2019-01-08T12:28:29.788Z,6.40
2019-01-08T12:30:59.142Z,6.07
2019-01-08T12:33:28.329Z,5.77
2019-01-08T12:35:57.587Z,5.41
2019-01-08T12:38:26.754Z,5.41
2019-01-08T12:40:55.989Z,5.22
2019-01-08T12:43:25.178Z,5.18
2019-01-08T12:45:54.414Z,5.10
2019-01-08T12:48:23.547Z,5.07
2019-01-08T12:50:52.728Z,5.07
2019-01-08T12:53:21.874Z,5.37
2019-01-08T12:55:51.128Z,5.30
2019-01-08T12:58:20.340Z,5.46
2019-01-08T13:00:49.603Z,5.69
2019-01-08T13:03:18.739Z,5.86
2019-01-08T13:05:47.896Z,6.06
2019-01-08T13:08:17.096Z,6.04
2019-01-08T13:10:46.246Z,5.97
2019-01-08T13:13:15.634Z,5.89
2019-01-08T13:15:44.834Z,5.87
2019-01-08T13:18:15.038Z,5.92
2019-01-08T13:20:44.384Z,5.94
2019-01-08T13:23:13.556Z,6.05
2019-01-08T13:25:42.722Z,6.19
2019-01-08T13:28:11.844Z,6.31
2019-01-08T13:30:41.078Z,6.35
2019-01-08T13:33:10.260Z,6.41
2019-01-08T13:35:39.448Z,6.35
2019-01-08T13:38:08.626Z,6.39
2019-01-08T13:40:38.119Z,6.48
2019-01-08T13:43:07.382Z,6.51
2019-01-08T13:45:36.535Z,6.47
2019-01-08T13:48:06.057Z,6.18
2019-01-08T13:50:35.189Z,5.92
2019-01-08T13:53:04.310Z,5.81
2019-01-08T13:55:33.477Z,5.85
2019-01-08T13:58:02.595Z,6.05
2019-01-08T14:00:31.810Z,6.19
2019-01-08T14:03:03.182Z,6.08
2019-01-08T14:05:32.420Z,5.99
2019-01-08T14:08:01.606Z,5.89
2019-01-08T14:10:30.805Z,6.04
2019-01-08T14:12:59.944Z,6.07
2019-01-08T14:15:29.181Z,6.20
2019-01-08T14:17:58.778Z,6.17
2019-01-08T14:20:28.036Z,6.26
2019-01-08T14:22:57.322Z,6.40
2019-01-08T14:25:26.489Z,6.47
2019-01-08T14:27:55.717Z,6.46
2019-01-08T14:30:24.878Z,6.57
2019-01-08T14:32:54.115Z,6.68
2019-01-08T14:35:23.283Z,6.70
2019-01-08T14:37:52.541Z,6.70
2019-01-08T14:40:22.073Z,6.52
2019-01-08T14:42:51.207Z,6.52
2019-01-08T14:45:20.336Z,6.63
2019-01-08T14:47:49.696Z,6.63
2019-01-08T14:50:18.955Z,6.69
2019-01-08T14:52:48.091Z,6.80
2019-01-08T14:55:17.269Z,6.67
2019-01-08T14:57:46.420Z,6.66
2019-01-08T15:00:15.705Z,6.68
2019-01-08T15:02:49.426Z,6.88
2019-01-08T15:05:15.849Z,6.75
2019-01-08T15:07:45.021Z,6.73
2019-01-08T15:10:14.389Z,6.69
2019-01-08T15:12:43.614Z,6.59
2019-01-08T15:15:13.006Z,6.53
2019-01-08T15:17:42.178Z,6.58
2019-01-08T15:20:11.391Z,6.48
2019-01-08T15:22:40.767Z,6.38
2019-01-08T15:25:09.966Z,6.32
2019-01-08T15:27:39.136Z,6.28
2019-01-08T15:30:10.051Z,6.31
2019-01-08T15:32:39.195Z,5.62
2019-01-08T15:35:08.332Z,5.27
2019-01-08T15:37:37.524Z,5.30
2019-01-08T15:40:07.078Z,5.09
2019-01-08T15:42:36.197Z,4.99
2019-01-08T15:45:05.383Z,5.01
2019-01-08T15:47:34.578Z,5.30
2019-01-08T15:50:03.744Z,5.27
2019-01-08T15:52:32.919Z,5.55
2019-01-08T15:55:02.046Z,5.46
2019-01-08T15:57:31.218Z,5.53
2019-01-08T16:00:00.357Z,5.52
2019-01-08T16:02:29.573Z,5.55
2019-01-08T16:04:58.844Z,5.62
2019-01-08T16:07:28.007Z,5.75
2019-01-08T16:09:57.196Z,5.54
2019-01-08T16:12:26.329Z,5.58
2019-01-08T16:14:55.620Z,5.73
2019-01-08T16:17:24.772Z,5.70
2019-01-08T16:19:53.917Z,5.27
2019-01-08T16:22:23.101Z,4.35
2019-01-08T16:24:52.401Z,4.14
2019-01-08T16:27:21.562Z,4.00
2019-01-08T16:29:50.837Z,4.31
2019-01-08T16:32:20.031Z,4.50
2019-01-08T16:34:49.226Z,4.70
2019-01-08T16:37:18.406Z,4.81
2019-01-08T16:39:50.597Z,5.39
2019-01-08T16:42:19.866Z,5.24
2019-01-08T16:44:49.011Z,5.60
2019-01-08T16:47:18.259Z,5.75
2019-01-08T16:49:47.453Z,5.83
2019-01-08T16:52:16.667Z,5.75
2019-01-08T16:54:45.829Z,5.74
2019-01-08T16:57:15.028Z,5.76
2019-01-08T16:59:44.495Z,5.72
2019-01-08T17:02:13.800Z,5.72
2019-01-08T17:04:42.932Z,5.58
2019-01-08T17:07:12.058Z,5.48
2019-01-08T17:09:41.340Z,5.48
2019-01-08T17:12:10.623Z,5.44
2019-01-08T17:14:39.758Z,5.26
2019-01-08T17:17:09.042Z,5.28
2019-01-08T17:19:38.215Z,5.18
2019-01-08T17:22:07.365Z,5.16
2019-01-08T17:24:36.544Z,5.21
2019-01-08T17:27:05.958Z,5.31
2019-01-08T17:29:35.096Z,5.29
2019-01-08T17:32:04.231Z,5.46
2019-01-08T17:34:33.469Z,5.57
2019-01-08T17:37:02.573Z,5.53
2019-01-08T17:39:31.763Z,5.56
2019-01-08T17:42:00.907Z,5.64
2019-01-08T17:44:30.425Z,5.57
2019-01-08T17:46:59.658Z,5.61
2019-01-08T17:49:28.849Z,5.51
2019-01-08T17:51:58.447Z,5.48
2019-01-08T17:54:27.792Z,5.58
2019-01-08T17:56:56.958Z,5.55
2019-01-08T17:59:26.136Z,5.55
2019-01-08T18:01:57.473Z,5.65
2019-01-08T18:04:26.831Z,5.65
2019-01-08T18:06:55.998Z,5.69
2019-01-08T18:09:25.186Z,5.65
2019-01-08T18:11:54.360Z,5.47
2019-01-08T18:14:23.597Z,5.40
2019-01-08T18:16:52.774Z,5.27
2019-01-08T18:19:22.031Z,5.09
2019-01-08T18:21:51.196Z,5.23
2019-01-08T18:24:20.401Z,5.28
2019-01-08T18:26:49.721Z,5.31
2019-01-08T18:29:18.874Z,5.32
2019-01-08T18:31:48.135Z,5.31
2019-01-08T18:34:17.313Z,5.33
2019-01-08T18:36:46.590Z,5.31
2019-01-08T18:39:15.780Z,5.33
2019-01-08T18:41:44.923Z,5.31
2019-01-08T18:44:14.232Z,5.42
2019-01-08T18:46:43.529Z,5.34
2019-01-08T18:49:12.751Z,5.28
2019-01-08T18:51:41.921Z,5.26
2019-01-08T18:54:11.104Z,5.39
2019-01-08T18:56:40.434Z,5.39
2019-01-08T18:59:09.723Z,5.34
2019-01-08T19:01:39.921Z,5.19
2019-01-08T19:04:09.338Z,5.33
2019-01-08T19:06:38.639Z,5.25
2019-01-08T19:09:36.859Z,5.31
2019-01-08T19:12:08.318Z,5.28
2019-01-08T19:14:42.089Z,5.19
2019-01-08T19:17:11.283Z,5.21
2019-01-08T19:19:41.511Z,5.32
2019-01-08T19:22:10.759Z,5.22
2019-01-08T19:24:41.751Z,5.34
2019-01-08T19:27:11.027Z,5.31
2019-01-08T19:29:40.885Z,5.30
2019-01-08T19:32:10.090Z,5.31
2019-01-08T19:34:39.270Z,5.32
2019-01-08T19:37:08.504Z,5.27
2019-01-08T19:39:37.915Z,5.20
2019-01-08T19:42:07.368Z,5.27
2019-01-08T19:44:37.806Z,5.20
2019-01-08T19:47:07.143Z,5.26
2019-01-08T19:49:36.355Z,5.23
2019-01-08T19:52:06.085Z,5.25
2019-01-08T19:54:35.335Z,5.09
2019-01-08T19:57:06.092Z,5.04
2019-01-08T19:59:36.455Z,5.05
2019-01-08T20:02:05.776Z,5.05
2019-01-08T20:04:35.618Z,5.09
2019-01-08T20:07:05.249Z,5.04
2019-01-08T20:09:34.452Z,4.99
2019-01-08T20:12:03.864Z,4.96
2019-01-08T20:14:34.483Z,4.89
2019-01-08T20:17:03.788Z,4.81
2019-01-08T20:19:33.102Z,4.67
2019-01-08T20:22:02.756Z,4.80
2019-01-08T20:24:34.249Z,4.85
2019-01-08T20:27:03.564Z,4.89
2019-01-08T20:29:32.844Z,4.98
2019-01-08T20:32:04.340Z,4.93
2019-01-08T20:34:34.874Z,4.86
2019-01-08T20:37:04.177Z,4.83
2019-01-08T20:39:33.405Z,4.77
2019-01-08T20:42:03.542Z,4.73
2019-01-08T20:44:32.969Z,4.72
2019-01-08T20:47:02.219Z,4.62
2019-01-08T20:49:31.972Z,4.49
2019-01-08T20:52:01.246Z,4.41
2019-01-08T20:54:30.494Z,4.39
2019-01-08T20:57:08.560Z,4.31
2019-01-08T20:59:30.627Z,4.25
2019-01-08T21:02:01.029Z,4.23
2019-01-08T21:04:35.274Z,4.13
2019-01-08T21:07:01.179Z,3.91
2019-01-08T21:09:30.504Z,3.96
2019-01-08T21:12:00.885Z,4.04
2019-01-08T21:14:30.081Z,4.11
2019-01-08T21:16:59.374Z,4.12
2019-01-08T21:19:28.603Z,4.28
2019-01-08T21:21:58.217Z,4.22
2019-01-08T21:24:28.863Z,4.23
2019-01-08T21:26:58.165Z,4.29
2019-01-08T21:29:27.609Z,4.38
2019-01-08T21:31:58.666Z,4.50
2019-01-08T21:34:27.855Z,4.57
2019-01-08T21:36:57.112Z,4.49
2019-01-08T21:39:26.356Z,4.51
2019-01-08T21:41:55.512Z,4.57
2019-01-08T21:44:25.127Z,4.62
2019-01-08T21:46:54.407Z,4.55
2019-01-08T21:49:23.602Z,4.54
2019-01-08T21:51:52.749Z,4.58
2019-01-08T21:54:21.996Z,4.55
2019-01-08T21:56:51.216Z,4.47
2019-01-08T21:59:20.454Z,4.53
2019-01-08T22:01:49.723Z,4.49
2019-01-08T22:04:18.975Z,4.44
2019-01-08T22:06:48.259Z,4.48
2019-01-08T22:09:17.419Z,4.47
2019-01-08T22:11:46.584Z,4.46
2019-01-08T22:14:16.090Z,4.53
2019-01-08T22:16:45.734Z,4.70
2019-01-08T22:19:15.040Z,4.69
2019-01-08T22:21:44.222Z,4.72
2019-01-08T22:24:13.505Z,4.71
2019-01-08T22:26:42.635Z,4.76
2019-01-08T22:29:11.786Z,4.78
2019-01-08T22:31:41.080Z,4.83
2019-01-08T22:34:10.233Z,4.79
2019-01-08T22:36:39.385Z,4.77
2019-01-08T22:39:08.585Z,4.78
2019-01-08T22:41:37.878Z,4.77
2019-01-08T22:44:07.153Z,4.73
2019-01-08T22:46:36.604Z,4.72
2019-01-08T22:49:06.295Z,4.73
2019-01-08T22:51:35.435Z,4.67
2019-01-08T22:54:05.164Z,4.65
2019-01-08T22:56:34.346Z,4.66
2019-01-08T22:59:03.517Z,4.58
2019-01-08T23:01:39.038Z,4.46
2019-01-08T23:04:09.839Z,4.57
2019-01-08T23:06:39.321Z,4.51
2019-01-08T23:09:08.830Z,4.53
2019-01-08T23:11:38.370Z,4.60
2019-01-08T23:14:07.555Z,4.57
2019-01-08T23:16:36.705Z,4.51
2019-01-08T23:19:05.981Z,4.51
2019-01-08T23:21:36.413Z,4.51
2019-01-08T23:24:05.551Z,4.49
2019-01-08T23:26:34.684Z,4.50
2019-01-08T23:29:03.855Z,4.51
2019-01-08T23:31:33.110Z,4.52
2019-01-08T23:34:02.253Z,4.52
2019-01-08T23:36:32.826Z,4.51
2019-01-08T23:39:01.956Z,4.55
2019-01-08T23:41:31.132Z,4.56
2019-01-08T23:44:00.288Z,4.56
2019-01-08T23:46:29.444Z,4.43
2019-01-08T23:48:58.621Z,4.29
2019-01-08T23:51:27.798Z,4.21
2019-01-08T23:53:57.242Z,4.17
2019-01-08T23:56:26.411Z,4.17
2019-01-08T23:58:55.653Z,4.18
